Time;durP1;ratioP1;P1;durP2;ratioP2;P2;SDS_P1;SDS_P2;PMS_P1;PMS_P2;Temp;Humidity;BMP_temperature;BMP_pressure;BME280_temperature;BME280_humidity;BME280_pressure;Samples;Min_cycle;Max_cycle;Signal;HPM_P1;HPM_P2
2023/01/26 00:00:59;;;;;;;0.40;0.40;;;;;;;18.22;39.47;102168.38;5097004;28;20105;-51
2023/01/26 00:03:25;;;;;;;0.32;0.32;;;;;;;18.22;39.50;102168.38;5114282;28;20142;-50
2023/01/26 00:05:51;;;;;;;0.30;0.30;;;;;;;18.22;39.65;102164.75;5114073;28;20599;-51
2023/01/26 00:08:17;;;;;;;0.30;0.30;;;;;;;18.21;39.48;102158.41;5104699;28;20055;-50
2023/01/26 00:10:49;;;;;;;0.30;0.30;;;;;;;18.22;39.49;102153.72;5093671;28;20093;-51
2023/01/26 00:13:18;;;;;;;0.30;0.30;;;;;;;18.22;39.34;102135.28;5112150;28;20098;-49
2023/01/26 00:15:44;;;;;;;0.30;0.30;;;;;;;18.22;39.51;102132.53;5120319;27;20061;-53
2023/01/26 00:18:10;;;;;;;0.30;0.30;;;;;;;18.22;39.54;102134.41;5134298;27;20070;-50
2023/01/26 00:20:35;;;;;;;0.38;0.38;;;;;;;18.22;39.72;102131.66;5153079;27;20428;-50
2023/01/26 00:23:01;;;;;;;0.30;0.30;;;;;;;18.22;39.68;102131.66;5118658;27;20048;-50
2023/01/26 00:25:27;;;;;;;0.30;0.30;;;;;;;18.21;39.48;102132.75;5115066;27;20051;-50
2023/01/26 00:27:53;;;;;;;0.30;0.30;;;;;;;18.21;39.41;102133.56;5134330;27;20289;-51
2023/01/26 00:30:19;;;;;;;0.20;0.20;;;;;;;18.21;39.68;102135.50;5152937;27;20051;-51
2023/01/26 00:32:45;;;;;;;0.30;0.30;;;;;;;18.20;39.56;102115.38;5152753;27;20129;-50
2023/01/26 00:35:10;;;;;;;0.35;0.35;;;;;;;18.22;39.63;102109.59;5152650;27;20378;-49
2023/01/26 00:37:37;;;;;;;0.30;0.30;;;;;;;18.22;39.43;102109.59;5152515;27;20269;-50
2023/01/26 00:40:03;;;;;;;0.30;0.30;;;;;;;18.21;39.40;102097.72;5134352;27;20501;-50
2023/01/26 00:42:28;;;;;;;0.40;0.40;;;;;;;18.21;39.64;102097.72;5152483;27;20158;-51
2023/01/26 00:44:54;;;;;;;0.35;0.35;;;;;;;18.21;39.56;102091.38;5153049;27;20410;-50
2023/01/26 00:47:20;;;;;;;0.30;0.30;;;;;;;18.21;39.45;102085.88;5151801;27;20055;-49
2023/01/26 00:49:45;;;;;;;0.40;0.40;;;;;;;18.20;39.58;102074.00;5152458;27;20051;-49
2023/01/26 00:52:12;;;;;;;0.40;0.40;;;;;;;18.21;39.57;102064.66;5152526;27;20422;-50
2023/01/26 00:54:38;;;;;;;0.40;0.40;;;;;;;18.20;39.49;102071.25;5133825;27;20054;-49
2023/01/26 00:57:03;;;;;;;0.30;0.30;;;;;;;18.19;39.47;102071.50;5133437;27;20042;-50
2023/01/26 00:59:31;;;;;;;0.40;0.40;;;;;;;18.21;39.51;102083.94;5152620;27;20046;-50
2023/01/26 01:01:58;;;;;;;0.40;0.40;;;;;;;18.20;39.50;102074.00;5152244;27;20159;-51
2023/01/26 01:04:24;;;;;;;0.30;0.30;;;;;;;18.20;39.64;102073.19;5133867;27;20531;-51
2023/01/26 01:06:50;;;;;;;0.30;0.30;;;;;;;18.20;39.61;102067.66;5152461;27;20375;-49
2023/01/26 01:09:16;;;;;;;0.32;0.32;;;;;;;18.20;39.76;102059.38;5111069;27;20055;-49
2023/01/26 01:11:44;;;;;;;0.30;0.30;;;;;;;18.20;39.60;102059.38;5092826;28;20045;-51
2023/01/26 01:14:12;;;;;;;0.30;0.30;;;;;;;18.20;39.54;102062.97;5093041;28;20043;-49
2023/01/26 01:16:38;;;;;;;0.30;0.30;;;;;;;18.20;39.69;102067.66;5099228;27;20046;-49
2023/01/26 01:19:03;;;;;;;0.40;0.40;;;;;;;18.19;39.64;102064.06;5133169;27;20543;-50
2023/01/26 01:21:30;;;;;;;0.30;0.30;;;;;;;18.19;39.62;102055.78;5144280;27;20073;-49
2023/01/26 01:23:56;;;;;;;0.30;0.30;;;;;;;18.18;39.63;102058.81;5110932;28;20051;-50
2023/01/26 01:26:22;;;;;;;0.38;0.38;;;;;;;18.19;39.58;102066.00;5128977;27;20102;-51
2023/01/26 01:28:47;;;;;;;0.30;0.30;;;;;;;18.19;39.68;102054.97;5152002;27;20047;-50
2023/01/26 01:31:14;;;;;;;0.40;0.40;;;;;;;18.19;39.77;102057.72;5133096;27;20046;-50
2023/01/26 01:33:40;;;;;;;0.30;0.30;;;;;;;18.20;39.47;102056.63;5133454;27;20850;-51
2023/01/26 01:36:09;;;;;;;0.43;0.43;;;;;;;18.19;39.69;102050.28;5151698;27;20074;-50
2023/01/26 01:38:35;;;;;;;0.40;0.40;;;;;;;18.18;39.52;102062.41;5133099;27;20043;-49
2023/01/26 01:41:01;;;;;;;0.30;0.30;;;;;;;18.19;39.61;102052.22;5151762;27;20057;-52
2023/01/26 01:43:27;;;;;;;0.30;0.30;;;;;;;18.19;39.42;102044.78;5151915;27;20466;-50
2023/01/26 01:45:53;;;;;;;0.30;0.30;;;;;;;18.19;39.58;102035.66;5132936;27;20073;-49
2023/01/26 01:48:24;;;;;;;0.30;0.30;;;;;;;18.18;39.44;102043.09;5151192;27;20489;-51
2023/01/26 01:50:53;;;;;;;0.30;0.30;;;;;;;18.18;39.48;102043.09;5133124;27;20050;-51
2023/01/26 01:53:23;;;;;;;0.30;0.30;;;;;;;18.17;39.52;102041.41;5151489;27;20053;-49
2023/01/26 01:55:59;;;;;;;0.30;0.30;;;;;;;18.17;39.51;102046.91;5132591;27;20051;-52
2023/01/26 01:58:26;;;;;;;0.30;0.30;;;;;;;18.17;39.54;102046.91;5150444;27;20471;-50
2023/01/26 02:00:52;;;;;;;0.40;0.40;;;;;;;18.18;39.45;102045.03;5132407;27;20084;-52
2023/01/26 02:03:19;;;;;;;0.30;0.30;;;;;;;18.18;39.58;102048.63;5151609;27;20082;-49
2023/01/26 02:05:52;;;;;;;0.38;0.38;;;;;;;18.18;39.69;102036.75;5151405;27;20083;-50
2023/01/26 02:08:20;;;;;;;0.35;0.35;;;;;;;18.17;39.24;102033.13;5123167;28;20035;-50
2023/01/26 02:10:48;;;;;;;0.30;0.30;;;;;;;18.17;39.55;102033.13;5112175;28;20047;-50
2023/01/26 02:13:15;;;;;;;0.20;0.20;;;;;;;18.17;39.57;102027.63;5112388;28;20479;-50
2023/01/26 02:15:42;;;;;;;0.30;0.30;;;;;;;18.16;39.38;102028.72;5134129;27;20109;-51
2023/01/26 02:18:09;;;;;;;0.40;0.40;;;;;;;18.17;39.40;102026.78;5151155;27;20074;-51
2023/01/26 02:20:46;;;;;;;0.30;0.30;;;;;;;18.17;39.48;102018.50;5151223;27;20046;-51
2023/01/26 02:26:17;;;;;;;0.40;0.40;;;;;;;18.17;39.59;102019.34;5174727;27;20121;-48
2023/01/26 02:28:45;;;;;;;0.30;0.30;;;;;;;18.17;39.48;102024.03;5149188;27;20077;-47
2023/01/26 02:31:11;;;;;;;0.30;0.30;;;;;;;18.16;39.57;102023.19;5148879;27;20474;-47
2023/01/26 02:33:37;;;;;;;0.30;0.30;;;;;;;18.17;39.57;102030.38;5168157;27;20046;-47
2023/01/26 02:36:04;;;;;;;0.40;0.40;;;;;;;18.16;39.69;102028.72;5149134;27;20467;-48
2023/01/26 02:39:10;;;;;;;0.40;0.40;;;;;;;18.16;39.53;102012.16;5167597;27;20490;-50
2023/01/26 02:44:21;;;;;;;0.30;0.30;;;;;;;18.17;39.75;102007.50;5152041;27;20046;-47
2023/01/26 02:46:47;;;;;;;0.30;0.30;;;;;;;18.16;39.41;102017.69;5167238;27;20054;-48
2023/01/26 02:51:58;;;;;;;0.40;0.40;;;;;;;18.15;39.45;102006.91;5152131;27;20308;-52
2023/01/26 02:57:09;;;;;;;0.30;0.30;;;;;;;18.15;39.39;101999.47;5151140;27;20508;-47
2023/01/26 02:59:35;;;;;;;0.30;0.30;;;;;;;18.17;39.48;102004.72;5167684;27;20046;-47
2023/01/26 03:02:01;;;;;;;0.40;0.40;;;;;;;18.15;39.60;101999.47;5167209;27;20616;-49
2023/01/26 03:04:26;;;;;;;0.40;0.40;;;;;;;18.15;39.85;101991.22;5167264;27;20050;-50
2023/01/26 03:06:52;;;;;;;0.30;0.30;;;;;;;18.15;39.71;101999.47;5160523;27;20400;-48
2023/01/26 03:09:18;;;;;;;0.30;0.30;;;;;;;18.16;39.53;102000.31;5166842;27;20062;-48
2023/01/26 03:11:43;;;;;;;0.32;0.32;;;;;;;18.14;39.50;101995.06;5160611;27;20034;-47
2023/01/26 03:14:10;;;;;;;0.30;0.30;;;;;;;18.16;39.57;101994.78;5146490;27;20050;-46
2023/01/26 03:16:36;;;;;;;0.30;0.30;;;;;;;18.15;39.93;101990.38;5157495;27;20455;-48
2023/01/26 03:27:32;;;;;;;0.30;0.30;;;;;;;18.14;39.60;101980.44;5145007;27;20427;-46
2023/01/26 03:29:47;;;;;;;0.30;0.30;;;;;;;18.15;39.53;101984.84;5151677;27;20047;-48
2023/01/26 03:32:13;;;;;;;0.32;0.32;;;;;;;18.14;39.42;101973.00;5166551;27;20099;-48
2023/01/26 03:34:38;;;;;;;0.30;0.30;;;;;;;18.15;39.55;101971.06;5131070;27;20062;-47
2023/01/26 03:37:05;;;;;;;0.30;0.30;;;;;;;18.14;39.61;101973.00;5137182;27;20069;-47
2023/01/26 03:56:39;;;;;;;;;;;;;;;18.15;39.56;101982.94;5137174;27;20119;-48
2023/01/26 03:58:55;;;;;;;0.38;0.38;;;;;;;18.14;39.69;101985.94;5122764;27;19972;-48
2023/01/26 04:01:26;;;;;;;0.30;0.30;;;;;;;18.13;39.54;101985.09;5133594;27;20074;-50
2023/01/26 04:09:30;;;;;;;0.30;0.30;;;;;;;18.14;39.67;101986.78;5108631;27;20518;-46
2023/01/26 04:11:56;;;;;;;0.30;0.30;;;;;;;18.13;39.64;101990.59;5152653;27;20325;-47
2023/01/26 04:22:49;;;;;;;0.40;0.40;;;;;;;18.13;39.68;101985.09;5136679;27;20076;-47
2023/01/26 04:25:17;;;;;;;0.30;0.30;;;;;;;18.13;39.75;101985.09;5141252;27;20438;-47
2023/01/26 04:27:43;;;;;;;0.20;0.20;;;;;;;18.13;39.65;101973.22;5109056;28;20051;-47
2023/01/26 04:30:10;;;;;;;0.30;0.30;;;;;;;18.13;39.92;101967.72;5096099;28;20088;-47
2023/01/26 04:32:36;;;;;;;0.30;0.30;;;;;;;18.12;39.79;101972.41;5112898;28;20046;-47
2023/01/26 04:35:04;;;;;;;0.30;0.30;;;;;;;18.12;39.64;101961.38;5131414;28;20067;-47
2023/01/26 04:37:29;;;;;;;0.30;0.30;;;;;;;18.12;39.66;101969.63;5130962;27;20046;-46
2023/01/26 04:39:55;;;;;;;0.30;0.30;;;;;;;18.13;39.61;101970.47;5131339;28;20047;-48
2023/01/26 04:42:23;;;;;;;0.30;0.30;;;;;;;18.12;39.62;101966.03;5131089;28;20509;-47
2023/01/26 04:44:51;;;;;;;0.30;0.30;;;;;;;18.12;39.64;101968.81;5131041;28;20440;-48
2023/01/26 04:47:17;;;;;;;0.30;0.30;;;;;;;18.12;39.51;101972.41;5112109;27;20062;-48
2023/01/26 04:49:42;;;;;;;0.30;0.30;;;;;;;18.11;39.55;101967.97;5130703;28;20043;-48
2023/01/26 04:52:08;;;;;;;0.30;0.30;;;;;;;18.13;39.63;101968.53;5131119;28;20043;-47
2023/01/26 04:54:34;;;;;;;0.30;0.30;;;;;;;18.12;39.45;101966.03;5131025;28;20050;-47
2023/01/26 04:56:59;;;;;;;0.30;0.30;;;;;;;18.12;39.54;101966.03;5130610;27;20043;-47
2023/01/26 04:59:25;;;;;;;0.40;0.40;;;;;;;18.12;39.63;101968.81;5130948;28;20497;-48
2023/01/26 05:01:51;;;;;;;0.30;0.30;;;;;;;18.12;39.44;101968.81;5130575;28;20053;-48
2023/01/26 05:04:16;;;;;;;0.30;0.30;;;;;;;18.12;39.56;101971.56;5112319;28;20471;-46
2023/01/26 05:06:43;;;;;;;0.30;0.30;;;;;;;18.12;39.74;101963.28;5130633;27;20054;-48
2023/01/26 05:09:09;;;;;;;0.30;0.30;;;;;;;18.12;39.69;101960.53;5130618;27;20078;-50
2023/01/26 05:11:35;;;;;;;0.30;0.30;;;;;;;18.12;39.48;101964.13;5112190;28;20047;-48
2023/01/26 05:14:00;;;;;;;0.40;0.40;;;;;;;18.12;39.73;101968.81;5130563;28;20043;-48
2023/01/26 05:16:27;;;;;;;0.30;0.30;;;;;;;18.11;39.56;101967.13;5130690;27;20054;-47
2023/01/26 05:18:53;;;;;;;0.30;0.30;;;;;;;18.11;39.62;101967.13;5130368;27;20064;-49
2023/01/26 05:21:19;;;;;;;0.30;0.30;;;;;;;18.12;39.44;101966.03;5130726;28;20055;-48
2023/01/26 05:23:45;;;;;;;0.30;0.30;;;;;;;18.11;39.46;101967.97;5095029;28;20043;-49
2023/01/26 05:26:11;;;;;;;0.30;0.30;;;;;;;18.11;39.85;101964.38;5142736;27;20556;-47
2023/01/26 05:28:36;;;;;;;0.32;0.32;;;;;;;18.11;39.53;101967.13;5151257;27;20486;-47
2023/01/26 05:31:02;;;;;;;0.30;0.30;;;;;;;18.11;39.71;101976.25;5150556;27;20051;-47
2023/01/26 05:33:28;;;;;;;0.30;0.30;;;;;;;18.11;39.46;101970.72;5132625;27;20046;-47
2023/01/26 05:35:54;;;;;;;0.40;0.40;;;;;;;18.11;39.49;101970.72;5150751;27;20061;-47
2023/01/26 05:38:20;;;;;;;0.40;0.40;;;;;;;18.11;39.50;101969.91;5131946;27;20566;-49
2023/01/26 05:40:45;;;;;;;0.40;0.40;;;;;;;18.10;39.56;101966.31;5132291;27;20073;-47
2023/01/26 05:43:12;;;;;;;0.40;0.40;;;;;;;18.11;39.65;101972.66;5132355;27;20054;-48
2023/01/26 05:45:38;;;;;;;0.40;0.40;;;;;;;18.10;39.58;101974.56;5132070;27;20093;-49
2023/01/26 05:48:05;;;;;;;0.40;0.40;;;;;;;18.11;39.48;101973.47;5127982;28;20070;-46
2023/01/26 05:50:30;;;;;;;0.40;0.40;;;;;;;18.11;39.63;101979.00;5130227;27;20089;-48
2023/01/26 05:52:56;;;;;;;0.35;0.35;;;;;;;18.10;39.65;101974.56;5129951;27;20051;-47
2023/01/26 05:55:22;;;;;;;0.40;0.40;;;;;;;18.10;39.53;101977.34;5130185;27;20144;-46
2023/01/26 05:57:47;;;;;;;0.40;0.40;;;;;;;18.10;39.58;101980.09;5150248;27;20073;-48
2023/01/26 06:00:14;;;;;;;0.40;0.40;;;;;;;18.11;39.64;101980.94;5150326;27;20046;-49
2023/01/26 06:02:40;;;;;;;0.40;0.40;;;;;;;18.10;39.59;101984.78;5150061;27;20412;-46
2023/01/26 06:05:06;;;;;;;0.30;0.30;;;;;;;18.10;39.72;101980.09;5131842;27;20050;-46
2023/01/26 06:07:32;;;;;;;0.40;0.40;;;;;;;18.10;39.64;101984.78;5149379;27;20074;-47
2023/01/26 06:09:58;;;;;;;0.40;0.40;;;;;;;18.10;39.73;101991.13;5150445;27;20069;-49
2023/01/26 06:12:23;;;;;;;0.35;0.35;;;;;;;18.10;39.68;101987.53;5150410;27;20051;-47
2023/01/26 06:14:49;;;;;;;0.30;0.30;;;;;;;18.10;39.58;101987.53;5150526;27;20054;-48
2023/01/26 06:17:16;;;;;;;0.40;0.40;;;;;;;18.10;39.58;101993.88;5150195;27;20046;-49
2023/01/26 06:19:42;;;;;;;0.30;0.30;;;;;;;18.10;39.64;101990.28;5150592;27;20042;-47
2023/01/26 06:22:09;;;;;;;0.40;0.40;;;;;;;18.10;39.62;101991.13;5150451;27;20475;-47
2023/01/26 06:24:34;;;;;;;0.40;0.40;;;;;;;18.09;39.80;101985.84;5131608;27;20054;-49
2023/01/26 06:27:01;;;;;;;0.30;0.30;;;;;;;18.10;40.00;101982.84;5140094;27;20406;-47
2023/01/26 06:29:26;;;;;;;0.35;0.35;;;;;;;18.10;39.57;101982.00;5129830;28;20534;-46
2023/01/26 06:31:52;;;;;;;0.30;0.30;;;;;;;18.11;39.72;101972.66;5117278;27;20043;-48
2023/01/26 06:34:18;;;;;;;0.40;0.40;;;;;;;18.10;39.71;101982.84;5149622;27;20042;-49
2023/01/26 06:36:44;;;;;;;0.40;0.40;;;;;;;18.10;39.59;101987.53;5130242;27;20046;-49
2023/01/26 06:39:11;;;;;;;0.40;0.40;;;;;;;18.11;39.66;101983.69;5149159;27;20127;-47
2023/01/26 06:41:37;;;;;;;0.40;0.40;;;;;;;18.10;39.74;101984.78;5149498;27;20077;-48
2023/01/26 06:44:03;;;;;;;0.40;0.40;;;;;;;18.09;39.85;101985.84;5131539;27;20039;-49
2023/01/26 06:46:28;;;;;;;0.38;0.38;;;;;;;18.09;39.74;101983.06;5147291;27;20055;-46
2023/01/26 06:48:54;;;;;;;0.35;0.35;;;;;;;18.10;39.68;101990.28;5149379;27;20045;-51
2023/01/26 06:53:55;;;;;;;0.40;0.40;;;;;;;18.09;39.76;101994.97;5143646;27;20121;-48
2023/01/26 06:56:22;;;;;;;0.40;0.40;;;;;;;18.09;39.72;101997.72;5108393;27;20039;-48
2023/01/26 06:58:48;;;;;;;0.40;0.40;;;;;;;18.09;39.58;102000.47;5099177;27;20403;-51
2023/01/26 07:01:17;;;;;;;0.40;0.40;;;;;;;18.08;39.85;101993.28;5109079;27;20047;-47
2023/01/26 07:03:42;;;;;;;0.40;0.40;;;;;;;18.08;39.84;102001.53;5104402;27;20501;-48
2023/01/26 07:06:11;;;;;;;0.40;0.40;;;;;;;18.08;39.66;101997.94;5130552;27;20042;-51
2023/01/26 07:08:37;;;;;;;0.30;0.30;;;;;;;18.09;39.69;102000.47;5093695;27;20043;-48
2023/01/26 07:11:03;;;;;;;0.30;0.30;;;;;;;18.09;39.86;101992.22;5110228;27;22045;-48
2023/01/26 07:13:29;;;;;;;0.40;0.40;;;;;;;18.09;39.67;101996.84;5131473;27;20089;-47
2023/01/26 07:16:15;;;;;;;0.40;0.40;;;;;;;18.09;39.88;101997.72;5127192;27;20047;-48
2023/01/26 07:18:40;;;;;;;0.30;0.30;;;;;;;18.08;39.65;101998.78;5099672;27;20784;-46
2023/01/26 07:21:09;;;;;;;0.30;0.30;;;;;;;18.09;39.86;102005.13;5125628;27;20549;-48
2023/01/26 07:23:35;;;;;;;0.40;0.40;;;;;;;18.09;39.67;102002.38;5114839;27;20075;-48
2023/01/26 07:26:01;;;;;;;0.30;0.30;;;;;;;18.08;39.82;101993.28;5103088;28;20555;-52
2023/01/26 07:28:29;;;;;;;0.40;0.40;;;;;;;18.08;39.85;101998.78;5110480;28;20490;-47
2023/01/26 07:30:58;;;;;;;0.30;0.30;;;;;;;18.07;39.87;101999.88;5092592;28;20074;-47
2023/01/26 07:33:24;;;;;;;0.30;0.30;;;;;;;18.08;39.65;101995.19;5090494;28;20405;-47
2023/01/26 07:35:53;;;;;;;0.40;0.40;;;;;;;18.08;39.81;101989.69;5094033;28;20562;-50
2023/01/26 07:38:19;;;;;;;0.40;0.40;;;;;;;18.09;39.74;101994.09;5091633;28;20044;-47
2023/01/26 07:40:45;;;;;;;0.30;0.30;;;;;;;18.08;39.86;101998.78;5110212;27;20553;-48
2023/01/26 07:43:10;;;;;;;0.40;0.40;;;;;;;18.07;39.82;101988.84;5111010;28;20068;-50
2023/01/26 07:45:36;;;;;;;0.30;0.30;;;;;;;18.07;39.34;101997.13;5107527;27;20043;-48
2023/01/26 07:48:02;;;;;;;0.40;0.40;;;;;;;18.06;39.75;101995.44;5115345;28;20096;-52
2023/01/26 07:50:27;;;;;;;0.30;0.30;;;;;;;18.07;39.78;101999.88;5097692;27;20059;-49
2023/01/26 07:52:53;;;;;;;0.40;0.40;;;;;;;18.08;39.79;102007.06;5106542;27;20438;-49
2023/01/26 07:55:20;;;;;;;0.30;0.30;;;;;;;18.08;39.75;102003.47;5105614;28;20039;-50
2023/01/26 07:57:47;;;;;;;0.30;0.30;;;;;;;18.08;39.85;102008.97;5084115;28;20066;-49
2023/01/26 08:00:14;;;;;;;0.30;0.30;;;;;;;18.08;39.87;102008.97;5078528;28;20051;-46
2023/01/26 08:02:40;;;;;;;0.43;0.43;;;;;;;18.07;39.82;101999.88;5098931;27;20870;-47
2023/01/26 08:05:06;;;;;;;0.30;0.30;;;;;;;18.13;39.90;102006.31;5075167;28;20048;-46
2023/01/26 08:07:32;;;;;;;0.30;0.30;;;;;;;18.11;39.70;102005.72;5072776;28;20051;-50
2023/01/26 08:09:58;;;;;;;0.40;0.40;;;;;;;18.11;39.92;102002.97;5085724;28;20052;-47
2023/01/26 08:12:24;;;;;;;0.40;0.40;;;;;;;18.09;39.83;101999.63;5065513;28;20043;-50
2023/01/26 08:14:49;;;;;;;0.30;0.30;;;;;;;18.10;40.18;102004.06;5092865;28;20051;-45
2023/01/26 08:17:16;;;;;;;0.40;0.40;;;;;;;18.11;39.91;102003.81;5094106;28;20047;-45
2023/01/26 08:19:42;;;;;;;0.32;0.32;;;;;;;18.10;39.78;102004.91;5097812;28;20076;-46
2023/01/26 08:22:08;;;;;;;0.32;0.32;;;;;;;18.10;40.09;102004.91;5099504;28;20062;-46
2023/01/26 08:24:34;;;;;;;0.32;0.32;;;;;;;18.11;40.00;102011.25;5097454;28;20043;-47
2023/01/26 08:26:59;;;;;;;0.80;0.80;;;;;;;18.11;39.92;102014.84;5096892;28;20039;-45
2023/01/26 08:29:25;;;;;;;0.40;0.40;;;;;;;18.12;40.05;102013.75;5101303;28;20040;-49
2023/01/26 08:31:51;;;;;;;0.40;0.40;;;;;;;18.11;39.79;102017.59;5093649;28;20047;-45
2023/01/26 08:34:16;;;;;;;0.30;0.30;;;;;;;18.17;40.05;102010.25;5091860;28;20047;-46
2023/01/26 08:36:42;;;;;;;0.30;0.30;;;;;;;18.20;40.43;102018.88;5100290;28;20048;-46
2023/01/26 08:39:08;;;;;;;0.38;0.38;;;;;;;18.21;40.47;102020.53;5096165;28;20484;-45
2023/01/26 08:41:34;;;;;;;0.40;0.40;;;;;;;18.23;40.25;102015.63;5089802;28;20564;-46
2023/01/26 08:43:59;;;;;;;0.30;0.30;;;;;;;18.23;40.27;102017.53;5089221;28;20043;-45
2023/01/26 08:46:25;;;;;;;0.30;0.30;;;;;;;18.21;40.45;102023.28;5093365;28;20051;-45
2023/01/26 08:48:51;;;;;;;0.40;0.40;;;;;;;18.21;40.26;102016.94;5078968;28;20048;-46
2023/01/26 08:51:17;;;;;;;0.32;0.32;;;;;;;18.20;40.62;102021.63;5077778;28;20059;-47
2023/01/26 08:53:43;;;;;;;0.30;0.30;;;;;;;18.27;40.22;102021.47;5075138;28;20032;-45
2023/01/26 08:56:11;;;;;;;0.30;0.30;;;;;;;18.27;40.50;102019.56;5091356;28;20402;-47
2023/01/26 08:58:37;;;;;;;0.25;0.25;;;;;;;18.28;40.19;102023.97;5075661;28;20051;-46
2023/01/26 09:01:04;;;;;;;0.30;0.30;;;;;;;18.26;40.52;102019.78;5068347;28;20416;-46
2023/01/26 09:03:30;;;;;;;0.30;0.30;;;;;;;18.25;40.41;102021.72;5070133;28;20114;-46
2023/01/26 09:05:58;;;;;;;0.30;0.30;;;;;;;18.26;40.60;102036.31;5094207;28;20051;-45
2023/01/26 09:08:24;;;;;;;;;;;;;;;18.24;40.50;102038.50;5087812;28;20089;-47
2023/01/26 09:10:49;;;;;;;0.30;0.30;;;;;;;18.24;40.43;102041.25;5094371;28;19923;-45
2023/01/26 09:13:15;;;;;;;0.30;0.30;;;;;;;18.24;40.53;102041.25;5096211;28;20088;-48
2023/01/26 09:15:41;;;;;;;0.30;0.30;;;;;;;18.24;40.52;102038.50;5093787;28;20510;-52
2023/01/26 09:18:06;;;;;;;0.68;0.68;;;;;;;18.24;40.49;102042.09;5087820;28;20054;-46
2023/01/26 09:20:32;;;;;;;0.30;0.30;;;;;;;18.25;40.52;102042.94;5084204;28;20072;-47
2023/01/26 09:22:58;;;;;;;0.40;0.40;;;;;;;18.25;40.52;102052.03;5088840;28;20098;-46
2023/01/26 09:25:23;;;;;;;0.30;0.30;;;;;;;18.24;40.39;102038.50;5094865;28;20051;-51
2023/01/26 09:27:49;;;;;;;0.40;0.40;;;;;;;18.26;40.34;102050.97;5093284;28;20043;-47
2023/01/26 09:30:15;;;;;;;0.30;0.30;;;;;;;18.25;40.58;102052.03;5102077;28;20043;-50
2023/01/26 09:32:41;;;;;;;0.30;0.30;;;;;;;18.26;40.41;102052.88;5093969;28;20055;-46
2023/01/26 09:35:10;;;;;;;0.40;0.40;;;;;;;18.27;40.39;102054.56;5078491;28;20091;-45
2023/01/26 09:37:39;;;;;;;0.40;0.40;;;;;;;18.26;40.57;102047.34;5085154;28;20044;-46
2023/01/26 09:40:05;;;;;;;0.30;0.30;;;;;;;18.35;40.34;102054.16;5078840;28;20051;-45
2023/01/26 09:42:39;;;;;;;0.30;0.30;;;;;;;18.34;40.25;102057.16;5090259;28;20050;-46
2023/01/26 09:45:17;;;;;;;0.30;0.30;;;;;;;18.32;40.60;102053.81;5055169;28;20462;-46
2023/01/26 09:48:10;;;;;;;0.30;0.30;;;;;;;18.32;40.39;102049.16;5096400;28;20771;-46
2023/01/26 09:50:54;;;;;;;0.40;0.40;;;;;;;18.32;40.45;102051.06;5083693;28;20044;-48
2023/01/26 09:53:25;;;;;;;0.55;0.40;;;;;;;18.32;40.62;102045.56;5076675;28;20067;-46
2023/01/26 09:55:51;;;;;;;0.30;0.30;;;;;;;18.31;40.60;102050.22;5091773;28;20047;-46
2023/01/26 09:58:27;;;;;;;0.30;0.30;;;;;;;18.32;40.62;102048.31;5096097;28;20516;-46
2023/01/26 10:00:57;;;;;;;0.30;0.30;;;;;;;18.32;40.55;102048.31;5097451;28;20078;-47
2023/01/26 10:03:32;;;;;;;0.50;0.50;;;;;;;18.32;40.38;102040.03;5073909;28;20047;-47
2023/01/26 10:06:21;;;;;;;0.20;0.20;;;;;;;18.31;40.30;102047.47;5078266;28;20048;-46
2023/01/26 10:08:48;;;;;;;0.30;0.30;;;;;;;18.32;40.61;102040.03;5076457;28;20390;-46
2023/01/26 10:11:25;;;;;;;0.40;0.40;;;;;;;18.32;40.47;102038.13;5081477;28;20535;-47
2023/01/26 10:13:55;;;;;;;0.30;0.30;;;;;;;18.32;40.37;102031.75;5101217;28;20051;-46
2023/01/26 10:16:23;;;;;;;0.30;0.30;;;;;;;18.32;40.21;102032.59;5082840;28;20543;-46
2023/01/26 10:18:58;;;;;;;0.20;0.20;;;;;;;18.33;40.59;102033.44;5093767;28;20477;-46
2023/01/26 10:21:27;;;;;;;0.30;0.30;;;;;;;18.34;40.43;102037.84;5088683;28;20075;-46
2023/01/26 10:23:53;;;;;;;0.32;0.32;;;;;;;18.33;40.42;102037.03;5077773;28;20095;-47
2023/01/26 10:26:21;;;;;;;0.38;0.38;;;;;;;18.36;40.09;102038.47;5073284;28;20052;-46
2023/01/26 10:28:49;;;;;;;0.20;0.20;;;;;;;18.38;40.30;102028.84;5074144;28;20047;-46
2023/01/26 10:31:20;;;;;;;0.20;0.20;;;;;;;18.38;40.56;102026.06;5072519;28;20067;-45
2023/01/26 10:36:43;;;;;;;0.20;0.20;;;;;;;18.37;40.51;102009.78;5159620;27;20995;-46
2023/01/26 10:39:11;;;;;;;0.20;0.20;;;;;;;18.38;40.57;102028.00;5109137;27;20050;-48
2023/01/26 10:41:40;;;;;;;0.30;0.30;;;;;;;18.37;40.66;102023.56;5123812;27;20054;-45
2023/01/26 10:47:02;;;;;;;0.30;0.30;;;;;;;18.37;40.45;102009.78;5163010;27;20148;-47
2023/01/26 10:49:28;;;;;;;0.30;0.30;;;;;;;18.36;40.44;102011.72;5112299;27;20050;-46
2023/01/26 10:52:16;;;;;;;0.32;0.32;;;;;;;18.37;40.53;102016.13;5147674;27;20049;-49
2023/01/26 10:54:43;;;;;;;0.25;0.25;;;;;;;18.36;40.42;102011.72;5134508;27;20062;-45
2023/01/26 10:57:20;;;;;;;0.35;0.35;;;;;;;18.38;40.63;102016.97;5125126;27;20034;-45
2023/01/26 10:59:51;;;;;;;0.30;0.30;;;;;;;18.37;40.46;102010.63;5157626;27;20046;-45
2023/01/26 11:02:20;;;;;;;0.30;0.30;;;;;;;18.38;40.43;102015.03;5150803;27;20429;-45
2023/01/26 11:07:43;;;;;;;0.30;0.30;;;;;;;18.38;40.50;102011.44;5152729;27;20117;-46
2023/01/26 11:10:29;;;;;;;;;;;;;;;18.38;40.37;102006.78;5140360;27;20042;-47
2023/01/26 11:15:59;;;;;;;0.30;0.30;;;;;;;18.37;40.48;101991.31;5162444;27;20685;-46
2023/01/26 11:18:49;;;;;;;0.30;0.30;;;;;;;18.37;40.50;101993.25;5116155;27;20042;-46
2023/01/26 11:21:21;;;;;;;0.30;0.30;;;;;;;18.38;40.38;101992.16;5118806;27;20046;-46
2023/01/26 11:24:08;;;;;;;0.30;0.30;;;;;;;18.39;40.49;101999.31;5102751;27;20043;-46
2023/01/26 11:29:42;;;;;;;0.30;0.30;;;;;;;18.39;40.47;101991.88;5156617;27;20137;-47
2023/01/26 11:32:17;;;;;;;0.40;0.40;;;;;;;18.40;40.20;101992.75;5119160;27;20675;-47
2023/01/26 11:35:10;;;;;;;0.40;0.40;;;;;;;18.39;40.24;101999.31;5132196;27;20058;-46
2023/01/26 11:38:16;;;;;;;0.30;0.30;;;;;;;18.39;40.28;101994.66;5114203;27;20047;-47
2023/01/26 11:40:50;;;;;;;0.30;0.30;;;;;;;18.39;40.33;101993.81;5106803;27;20207;-46
2023/01/26 11:43:55;;;;;;;0.40;0.40;;;;;;;18.39;40.07;101999.31;5109240;27;20071;-48
2023/01/26 11:46:32;;;;;;;0.30;0.30;;;;;;;18.37;40.08;101994.06;5113536;27;20043;-48
2023/01/26 11:52:06;;;;;;;0.30;0.30;;;;;;;18.38;40.21;101997.66;5115926;27;20122;-46
2023/01/26 11:55:11;;;;;;;0.30;0.30;;;;;;;18.37;40.30;101991.31;5096904;28;20423;-48
2023/01/26 11:58:01;;;;;;;0.30;0.30;;;;;;;18.37;40.06;101984.97;5089525;28;20415;-50
2023/01/26 12:00:40;;;;;;;0.30;0.30;;;;;;;18.37;40.06;101979.44;5092108;28;20043;-46
2023/01/26 12:03:24;;;;;;;0.30;0.30;;;;;;;18.37;40.32;101977.53;5112120;27;20083;-47
2023/01/26 12:05:53;;;;;;;0.35;0.35;;;;;;;18.37;40.09;101973.94;5118912;28;20134;-45
2023/01/26 12:08:24;;;;;;;0.30;0.30;;;;;;;18.36;40.24;101964.81;5116077;28;20054;-46
2023/01/26 12:11:21;;;;;;;0.30;0.30;;;;;;;18.37;40.09;101968.41;5089416;28;20075;-45
2023/01/26 12:13:53;;;;;;;0.30;0.30;;;;;;;18.36;40.23;101964.81;5100647;28;20050;-49
2023/01/26 12:16:27;;;;;;;0.30;0.30;;;;;;;18.36;40.14;101959.31;5116040;28;20059;-47
2023/01/26 12:19:09;;;;;;;0.30;0.30;;;;;;;18.36;40.49;101966.75;5116311;28;20131;-45
2023/01/26 12:21:39;;;;;;;0.30;0.30;;;;;;;18.38;40.32;101961.81;5109231;28;20047;-48
2023/01/26 12:24:11;;;;;;;0.30;0.30;;;;;;;18.37;40.14;101965.66;5117011;28;20075;-47
2023/01/26 12:26:58;;;;;;;0.40;0.40;;;;;;;18.41;40.30;101962.16;5084911;28;20059;-45
2023/01/26 12:29:29;;;;;;;0.30;0.30;;;;;;;18.41;40.61;101953.88;5112378;28;20054;-46
2023/01/26 12:32:07;;;;;;;0.40;0.40;;;;;;;18.40;40.43;101951.38;5095842;27;20482;-48
2023/01/26 12:34:32;;;;;;;0.30;0.30;;;;;;;18.40;40.37;101941.19;5109678;27;20461;-47
2023/01/26 12:37:39;;;;;;;0.30;0.30;;;;;;;18.38;40.39;101932.31;5108937;28;20044;-49
2023/01/26 12:40:27;;;;;;;0.38;0.38;;;;;;;18.40;40.44;101924.63;5101273;27;20059;-46
2023/01/26 12:43:10;;;;;;;0.30;0.30;;;;;;;18.41;40.34;101919.94;5117263;27;20081;-48
2023/01/26 12:45:39;;;;;;;0.38;0.38;;;;;;;18.40;40.42;101927.38;5113869;27;20043;-46